METAR AND TAF INFORMATION
METAR FOR KLOM
ADDS - METARS form results

(0416 UTC 18 January 2022)
Data provider http://aviationweather.gov/metar/data/
 
METAR text: KLOM 180355Z AUTO 29010G19KT 10SM OVC046 01/M06 A2951 RMK AO2 T00071062
Conditions at: KLOM (PHILLY WINGS F , PA, US) observed 0355 UTC 18 January 2022
Temperature: 0.7°C (33°F)
Dewpoint: -6.2°C (21°F) [RH = 60%]
Pressure (altimeter): 29.51 inches Hg (999.4 mb)
Winds: from the WNW (290 degrees) at 12 MPH (10 knots; 5.1 m/s)
gusting to 22 MPH (19 knots; 9.8 m/s)
Visibility: 10 or more miles (16+ km)
Ceiling: 4600 feet AGL
Clouds: overcast cloud deck at 4600 feet AGL
Weather: automated observation with no human augmentation;
there may or may not be significant weather present at this time

METAR text: KLOM 180335Z AUTO 29012G22KT 10SM OVC046 01/M06 A2950 RMK AO2 T00071059
Conditions at: KLOM (PHILLY WINGS F , PA, US) observed 0335 UTC 18 January 2022
Temperature: 0.7°C (33°F)
Dewpoint: -5.9°C (21°F) [RH = 61%]
Pressure (altimeter): 29.50 inches Hg (999.1 mb)
Winds: from the WNW (290 degrees) at 14 MPH (12 knots; 6.2 m/s)
gusting to 25 MPH (22 knots; 11.3 m/s)
Visibility: 10 or more miles (16+ km)
Ceiling: 4600 feet AGL
Clouds: overcast cloud deck at 4600 feet AGL
Weather: automated observation with no human augmentation;
there may or may not be significant weather present at this time

 AIRPORT MAP

 RUNWAY INFORMATION
Runway 06 Runway length 3700 ft Runway width 75 ft
Runway elevation 301 ft Runway displaced threshold 170 ft Runway heading 53
Runway 24 Runway length 3700 ft Runway width 75 ft
Runway elevation 280 ft Runway displaced threshold 0 ft Runway heading 233

 AIRPORT FREQUENCIES
Type A/D Name PHILADELPH Frequency 126.85 MHZ
Type AWOS Name AWOS 3 Frequency 118.925 MHZ
Type CLD Name CLNC DEL Frequency 118.55 MHZ
Type UNIC Name CTAF/UNICO Frequency 123 MHZ

 AIRPORT NEAR NAVIGATION AIDS

-